Skip Navigation Links Skip Navigation Links

Current Weather

Wabush Lake, Nfld.

For information only: do not use for flight planning or navigation.
Latest weather
Observation time Sunday, May 31, 2020 10:30 AM NDT
Local time Sunday, May 31, 2020 10:48 AM NDT
Flight conditions Instrument Meteorological Conditions
Winds
Wind direction West-Northwest (300°)
Wind speed 5 mph
Visibility 5 mi.
Present weather light rain
Sky condition
Ceiling 900 ft. overcast
Cloud layer overcast 900 ft.
Temperature 36°F
Dewpoint 34°F
Altimeter 29.77 in.Hg
Derived measurements
Relative humidity 93%
Wind chill 32°F
Density altitude -757 ft.
Sea-level pressure 29.84 in.Hg
METAR CYWK 311300Z 30004KT 5SM -RA OVC009 02/01 A2977 RMK SC8 SLP106

Settings

Location code

InnerDrive.Weather 4.0.6770.0 Release CLR 4.0.30319.42000
Copyright ©2018 Inner Drive Technology. All rights reserved. Portions Copyright ©1986-2018 David Braverman.

Find weather

Site navigation


Skip Navigation Links

Place info

Page info

PayPal - The safer, easier way to pay online!

Return home.

Copyright ©2020 Inner Drive Technology. Purveyors of fine, hand-crafted computer software. Page printed 2020-05-31T13:18:42 UTC.